Time;durP1;ratioP1;P1;durP2;ratioP2;P2;SDS_P1;SDS_P2;PMS_P1;PMS_P2;Temp;Humidity;BMP_temperature;BMP_pressure;BME280_temperature;BME280_humidity;BME280_pressure;Samples;Min_cycle;Max_cycle;Signal;HPM_P1;HPM_P2
2023/04/08 00:01:01;;;;;;;;;30.00;26.75;;;;;2.01;100.00;98543.53;4802094;28;102958;-72
2023/04/08 00:03:29;;;;;;;;;21.50;17.25;;;;;2.16;100.00;98555.41;4801713;28;102137;-72
2023/04/08 00:06:07;;;;;;;;;29.25;22.75;;;;;2.23;100.00;98569.81;4802866;28;103971;-72
2023/04/08 00:08:52;;;;;;;;;23.00;18.00;;;;;2.22;100.00;98568.97;4804054;28;102155;-71
2023/04/08 00:11:43;;;;;;;;;24.50;16.50;;;;;2.12;100.00;98551.31;4801495;28;102449;-73
2023/04/08 00:14:25;;;;;;;;;19.75;17.75;;;;;2.12;100.00;98546.00;4803893;28;102502;-71
2023/04/08 00:17:15;;;;;;;;;24.50;19.25;;;;;2.28;100.00;98572.88;4798007;28;107655;-71
2023/04/08 00:20:00;;;;;;;;;17.25;17.00;;;;;2.32;100.00;98574.25;4794821;28;102374;-72
2023/04/08 00:22:42;;;;;;;;;18.75;10.00;;;;;2.37;100.00;98571.97;4794050;28;103391;-71
2023/04/08 00:25:09;;;;;;;;;15.75;12.00;;;;;1.90;100.00;98495.75;4805214;28;102455;-71
2023/04/08 00:27:36;;;;;;;;;22.75;19.75;;;;;2.31;100.00;98571.72;4799790;28;104233;-72
2023/04/08 00:30:03;;;;;;;;;22.50;21.25;;;;;2.25;100.00;98570.50;4800943;28;102307;-71
2023/04/08 00:32:30;;;;;;;;;19.00;17.75;;;;;1.96;100.00;98529.81;4799083;28;102958;-72
2023/04/08 00:34:57;;;;;;;;;11.50;9.00;;;;;1.90;100.00;98536.56;4799632;28;102570;-72
2023/04/08 00:37:24;;;;;;;;;27.50;23.00;;;;;2.12;100.00;98589.50;4803561;28;104378;-72
2023/04/08 00:39:53;;;;;;;;;20.50;18.50;;;;;1.98;100.00;98571.31;4800200;28;102167;-72
2023/04/08 00:42:20;;;;;;;;;20.00;18.50;;;;;2.01;100.00;98586.22;4798939;28;108973;-73
2023/04/08 00:44:47;;;;;;;;;18.50;15.75;;;;;2.04;100.00;98577.91;4798995;28;102145;-73
2023/04/08 00:47:15;;;;;;;;;22.75;19.00;;;;;2.02;100.00;98579.91;4795804;28;104190;-71
2023/04/08 00:49:43;;;;;;;;;28.50;22.00;;;;;2.07;100.00;98596.28;4796438;28;101996;-71
2023/04/08 00:52:10;;;;;;;;;17.50;13.75;;;;;2.10;100.00;98586.16;4798491;28;102732;-72
2023/04/08 00:54:37;;;;;;;;;20.50;17.50;;;;;2.08;100.00;98595.28;4799899;28;102427;-71
2023/04/08 00:57:05;;;;;;;;;34.50;26.75;;;;;1.90;100.00;98589.06;4794552;28;103980;-72
2023/04/08 00:59:34;;;;;;;;;24.75;19.75;;;;;1.96;100.00;98597.31;4799027;28;102272;-71
2023/04/08 01:02:05;;;;;;;;;28.00;22.50;;;;;1.89;100.00;98592.72;4803329;28;102457;-71
2023/04/08 01:04:41;;;;;;;;;36.25;27.75;;;;;1.76;100.00;98595.69;4797879;28;102294;-71
2023/04/08 01:07:36;;;;;;;;;33.33;29.67;;;;;1.60;100.00;98564.34;4796945;28;103895;-71
2023/04/08 01:10:41;;;;;;;;;29.33;26.00;;;;;1.79;100.00;98596.28;4804998;28;102468;-72
2023/04/08 01:13:27;;;;;;;;;42.67;33.00;;;;;1.55;100.00;98585.25;4799747;28;101961;-72
2023/04/08 01:16:13;;;;;;;;;35.00;28.67;;;;;1.51;100.00;98575.88;4796031;28;102108;-72
2023/04/08 01:19:03;;;;;;;;;30.33;25.67;;;;;1.64;100.00;98605.72;4802640;28;103156;-72
2023/04/08 01:21:45;;;;;;;;;35.00;29.67;;;;;1.54;100.00;98594.22;4815843;28;102783;-72
2023/04/08 01:24:30;;;;;;;;;29.00;25.33;;;;;1.62;100.00;98613.00;4797101;28;102347;-72
2023/04/08 01:26:58;;;;;;;;;26.33;21.33;;;;;1.66;100.00;98616.22;4795724;28;103558;-72
2023/04/08 01:29:25;;;;;;;;;36.67;28.00;;;;;1.65;100.00;98622.53;4799800;28;103125;-72
2023/04/08 01:31:54;;;;;;;;;28.00;26.33;;;;;1.63;100.00;98620.00;4796301;28;102160;-71
2023/04/08 01:34:23;;;;;;;;;31.33;25.67;;;;;1.39;100.00;98585.03;4800000;28;102296;-71
2023/04/08 01:36:51;;;;;;;;;37.33;26.67;;;;;1.57;100.00;98619.75;4801364;28;102049;-71
2023/04/08 01:39:20;;;;;;;;;36.67;30.33;;;;;1.55;100.00;98617.22;4800062;28;104060;-71
2023/04/08 01:41:49;;;;;;;;;37.00;31.33;;;;;1.51;100.00;98615.84;4794201;28;102353;-71
2023/04/08 01:44:17;;;;;;;;;42.00;34.33;;;;;0.97;100.00;98535.78;4793199;28;102470;-70
2023/04/08 01:46:46;;;;;;;;;36.67;33.00;;;;;1.29;100.00;98586.88;4799035;28;102506;-72
2023/04/08 01:49:15;;;;;;;;;33.33;28.67;;;;;1.49;100.00;98620.47;4797141;28;104187;-71
2023/04/08 01:51:45;;;;;;;;;34.00;28.67;;;;;1.14;100.00;98564.31;4802854;28;102140;-71
2023/04/08 01:54:12;;;;;;;;;29.67;27.00;;;;;1.58;100.00;98627.59;4806661;28;102242;-71
2023/04/08 01:56:43;;;;;;;;;26.50;18.25;;;;;1.60;100.00;98622.97;4801374;28;102301;-71
2023/04/08 01:59:14;;;;;;;;;24.50;21.75;;;;;1.50;100.00;98615.97;4797372;28;104166;-71
2023/04/08 02:01:44;;;;;;;;;26.25;19.00;;;;;1.29;100.00;98594.88;4803633;28;102057;-70
2023/04/08 02:04:12;;;;;;;;;26.67;24.67;;;;;1.16;100.00;98595.16;4803878;28;108841;-71
2023/04/08 02:06:40;;;;;;;;;34.00;25.33;;;;;1.11;100.00;98623.19;4800508;28;102060;-71
2023/04/08 02:09:07;;;;;;;;;40.00;30.67;;;;;0.91;100.00;98606.38;4804653;28;104234;-71
2023/04/08 02:11:34;;;;;;;;;34.33;29.67;;;;;1.02;100.00;98629.34;4807084;28;102112;-71
2023/04/08 02:14:01;;;;;;;;;34.33;27.33;;;;;0.87;100.00;98635.09;4800497;28;104335;-71
2023/04/08 02:16:52;;;;;;;;;27.33;23.00;;;;;0.89;100.00;98635.81;4815169;28;102284;-73
2023/04/08 02:19:28;;;;;;;;;29.00;25.00;;;;;0.79;100.00;98619.00;4807633;28;104155;-71
2023/04/08 02:22:04;;;;;;;;;34.33;24.00;;;;;0.87;100.00;98629.78;4797171;28;104173;-74
2023/04/08 02:24:33;;;;;;;;;33.33;25.00;;;;;0.74;100.00;98631.88;4800983;28;102096;-71
2023/04/08 02:27:03;;;;;;;;;29.67;25.67;;;;;0.71;100.00;98636.63;4797696;28;102602;-71
2023/04/08 02:29:31;;;;;;;;;43.33;28.00;;;;;0.70;100.00;98649.09;4802967;28;104210;-71
2023/04/08 02:32:01;;;;;;;;;27.33;21.00;;;;;0.67;100.00;98638.75;4816662;28;102935;-72
2023/04/08 02:34:29;;;;;;;;;44.33;33.67;;;;;0.60;100.00;98645.56;4799766;28;102323;-72
2023/04/08 02:36:56;;;;;;;;;49.67;34.00;;;;;0.52;100.00;98642.75;4802937;28;107360;-73
2023/04/08 02:39:31;;;;;;;;;38.33;31.00;;;;;0.49;100.00;98643.03;4805358;28;104067;-72
2023/04/08 02:41:59;;;;;;;;;42.00;32.33;;;;;0.42;100.00;98641.88;4802256;28;102272;-73
2023/04/08 02:44:26;;;;;;;;;44.00;38.00;;;;;0.31;100.00;98637.56;4802081;28;102421;-72
2023/04/08 02:46:53;;;;;;;;;50.00;37.33;;;;;0.34;100.00;98639.91;4809393;28;102329;-71
2023/04/08 02:49:20;;;;;;;;;43.67;35.33;;;;;0.28;100.00;98631.63;4803539;28;104047;-71
2023/04/08 02:51:47;;;;;;;;;42.00;30.67;;;;;0.39;100.00;98652.81;4801011;28;102471;-71
2023/04/08 02:54:14;;;;;;;;;34.33;27.33;;;;;0.42;100.00;98656.03;4803362;28;102301;-71
2023/04/08 02:56:41;;;;;;;;;35.67;30.33;;;;;0.41;100.00;98656.16;4804367;28;102519;-71
2023/04/08 02:59:08;;;;;;;;;24.33;24.33;;;;;0.45;100.00;98652.28;4802629;28;104225;-71
2023/04/08 03:01:35;;;;;;;;;35.33;27.00;;;;;0.09;100.00;98607.69;4801279;28;102417;-71
2023/04/08 03:04:03;;;;;;;;;22.33;19.00;;;;;0.46;100.00;98653.94;4803462;28;103697;-71
2023/04/08 03:06:31;;;;;;;;;19.00;16.00;;;;;0.48;100.00;98656.47;4803287;28;102451;-71
2023/04/08 03:08:58;;;;;;;;;31.33;26.00;;;;;0.39;100.00;98647.50;4801832;28;104269;-71
2023/04/08 03:11:25;;;;;;;;;24.00;21.33;;;;;0.48;100.00;98669.78;4808265;28;102089;-71
2023/04/08 03:13:52;;;;;;;;;26.33;19.00;;;;;0.48;100.00;98667.13;4802793;28;102024;-71
2023/04/08 03:16:19;;;;;;;;;29.00;19.33;;;;;0.53;100.00;98673.72;4806183;28;102077;-71
2023/04/08 03:18:46;;;;;;;;;23.00;18.33;;;;;0.52;100.00;98674.69;4815838;28;104000;-71
2023/04/08 03:21:14;;;;;;;;;23.67;19.33;;;;;0.45;100.00;98654.94;4803166;28;104097;-71
2023/04/08 03:23:41;;;;;;;;;31.00;25.67;;;;;0.50;100.00;98675.78;4804798;28;102745;-71
2023/04/08 03:26:08;;;;;;;;;24.00;20.00;;;;;0.54;100.00;98672.72;4801450;28;102512;-71
2023/04/08 03:28:35;;;;;;;;;26.00;23.00;;;;;0.55;100.00;98678.88;4800442;28;104155;-71
2023/04/08 03:31:05;;;;;;;;;32.33;25.33;;;;;0.50;100.00;98665.97;4802939;28;102306;-71
2023/04/08 03:33:32;;;;;;;;;28.00;21.33;;;;;0.37;100.00;98657.41;4801439;28;102038;-71
2023/04/08 03:35:59;;;;;;;;;19.25;19.00;;;;;0.46;100.00;98664.56;4804183;28;102083;-72
2023/04/08 03:38:26;;;;;;;;;30.33;22.33;;;;;0.44;100.00;98679.84;4802794;28;103678;-72
2023/04/08 03:40:53;;;;;;;;;28.00;23.33;;;;;0.32;100.00;98678.25;4807920;28;102169;-71
2023/04/08 03:43:20;;;;;;;;;45.67;41.33;;;;;0.19;100.00;98673.16;4803993;28;101877;-71
2023/04/08 03:45:47;;;;;;;;;43.00;35.00;;;;;0.12;100.00;98671.19;4800466;28;102027;-71
2023/04/08 03:48:15;;;;;;;;;27.67;26.67;;;;;0.20;100.00;98684.66;4806475;28;104169;-71
2023/04/08 03:50:42;;;;;;;;;30.00;23.33;;;;;0.21;100.00;98687.19;4805628;28;102593;-71
2023/04/08 03:53:11;;;;;;;;;22.00;18.33;;;;;0.26;100.00;98690.28;4800368;28;102049;-71
2023/04/08 03:55:38;;;;;;;;;20.67;16.00;;;;;0.24;100.00;98680.75;4809687;28;102783;-71
2023/04/08 03:58:05;;;;;;;;;15.33;12.67;;;;;0.35;100.00;98693.94;4802645;28;104030;-71
2023/04/08 04:00:32;;;;;;;;;10.33;10.33;;;;;0.38;100.00;98694.53;4800388;28;103624;-71
2023/04/08 04:03:00;;;;;;;;;11.25;9.50;;;;;0.39;100.00;98700.69;4800020;28;101986;-71
2023/04/08 04:05:28;;;;;;;;;10.25;8.75;;;;;0.42;100.00;98697.75;4804285;28;102553;-73
2023/04/08 04:07:57;;;;;;;;;15.00;9.00;;;;;0.35;100.00;98699.28;4806502;28;104005;-71
2023/04/08 04:10:24;;;;;;;;;14.75;14.00;;;;;0.31;100.00;98697.88;4798166;28;102669;-71
2023/04/08 04:12:51;;;;;;;;;14.67;13.67;;;;;0.08;100.00;98672.44;4817919;28;104858;-71
2023/04/08 04:15:18;;;;;;;;;17.00;13.00;;;;;0.15;100.00;98686.88;4806494;28;102237;-71
2023/04/08 04:17:47;;;;;;;;;21.00;17.00;;;;;0.19;100.00;98715.72;4799017;28;104122;-71
2023/04/08 04:20:15;;;;;;;;;22.67;17.33;;;;;0.18;100.00;98713.22;4799112;28;101996;-71
2023/04/08 04:22:42;;;;;;;;;20.00;17.33;;;;;0.13;100.00;98712.75;4803919;28;103178;-71
2023/04/08 04:25:09;;;;;;;;;16.67;13.67;;;;;0.17;100.00;98719.50;4808646;28;102196;-71
2023/04/08 04:27:37;;;;;;;;;19.50;15.75;;;;;0.17;100.00;98717.69;4796777;28;104389;-71
2023/04/08 04:30:04;;;;;;;;;23.33;17.67;;;;;0.14;100.00;98722.41;4804858;28;103290;-71
2023/04/08 04:32:32;;;;;;;;;22.67;18.67;;;;;0.14;100.00;98717.06;4802782;28;101971;-72
2023/04/08 04:34:59;;;;;;;;;19.00;15.33;;;;;0.15;100.00;98719.63;4803813;28;102125;-72
2023/04/08 04:37:26;;;;;;;;;24.00;21.33;;;;;0.17;100.00;98727.47;4798055;28;103991;-71
2023/04/08 04:39:53;;;;;;;;;15.67;13.00;;;;;0.23;100.00;98721.59;4813593;28;102349;-72
2023/04/08 04:42:20;;;;;;;;;17.33;13.33;;;;;0.33;100.00;98722.50;4803700;28;102260;-71
2023/04/08 04:44:48;;;;;;;;;7.33;5.00;;;;;0.39;100.00;98732.59;4797654;28;102153;-71
2023/04/08 04:47:15;;;;;;;;;8.75;8.00;;;;;0.43;100.00;98734.84;4800345;28;104146;-71
2023/04/08 04:49:42;;;;;;;;;6.00;6.00;;;;;0.45;100.00;98732.06;4806619;28;102335;-71
2023/04/08 04:52:10;;;;;;;;;5.25;5.00;;;;;0.49;100.00;98727.31;4802013;28;102132;-71
2023/04/08 04:54:37;;;;;;;;;13.00;11.25;;;;;0.48;100.00;98725.63;4796476;28;102013;-72
2023/04/08 04:57:04;;;;;;;;;23.33;21.00;;;;;0.52;100.00;98732.34;4809209;28;103134;-71
2023/04/08 04:59:31;;;;;;;;;26.67;24.33;;;;;0.37;100.00;98723.91;4803117;28;102290;-71
2023/04/08 05:01:58;;;;;;;;;37.33;29.33;;;;;0.47;100.00;98739.91;4799930;28;102862;-72
2023/04/08 05:04:25;;;;;;;;;38.67;30.67;;;;;0.47;100.00;98742.56;4800753;28;101993;-71
2023/04/08 05:06:52;;;;;;;;;32.00;24.00;;;;;0.39;100.00;98730.78;4805568;28;109350;-71
2023/04/08 05:09:20;;;;;;;;;34.33;29.33;;;;;0.50;100.00;98755.56;4802728;28;102433;-71
2023/04/08 05:11:47;;;;;;;;;35.67;28.00;;;;;0.49;100.00;98751.25;4798718;28;102914;-72
2023/04/08 05:14:14;;;;;;;;;34.00;27.33;;;;;0.47;100.00;98748.72;4805338;28;102041;-72
2023/04/08 05:16:41;;;;;;;;;35.33;26.67;;;;;0.55;100.00;98751.53;4804590;28;104070;-72
2023/04/08 05:19:08;;;;;;;;;29.33;24.67;;;;;0.62;100.00;98750.06;4795760;28;102884;-72
2023/04/08 05:21:35;;;;;;;;;29.67;25.67;;;;;0.57;100.00;98736.31;4790930;28;102484;-72
2023/04/08 05:24:02;;;;;;;;;29.67;26.00;;;;;0.61;100.00;98742.19;4810192;28;102146;-71
2023/04/08 05:26:29;;;;;;;;;38.67;28.33;;;;;0.63;100.00;98756.22;4804593;28;104220;-72
2023/04/08 05:28:56;;;;;;;;;34.33;30.00;;;;;0.72;100.00;98766.06;4798475;28;102021;-71
2023/04/08 05:31:23;;;;;;;;;35.33;30.33;;;;;0.68;100.00;98749.50;4799754;28;102049;-72
2023/04/08 05:33:51;;;;;;;;;29.67;28.33;;;;;0.80;100.00;98768.88;4805250;28;102575;-72
2023/04/08 05:36:18;;;;;;;;;29.33;25.00;;;;;0.86;100.00;98768.31;4797941;28;104019;-72
2023/04/08 05:38:45;;;;;;;;;28.67;24.67;;;;;0.93;100.00;98773.94;4793704;29;102293;-72
2023/04/08 05:41:12;;;;;;;;;31.00;24.00;;;;;0.96;100.00;98779.81;4808568;28;101931;-71
2023/04/08 05:43:39;;;;;;;;;32.00;25.00;;;;;1.12;100.00;98774.00;4804533;28;103281;-71
2023/04/08 05:46:07;;;;;;;;;35.67;25.00;;;;;1.25;100.00;98772.75;4800255;28;104152;-73
2023/04/08 05:48:34;;;;;;;;;38.00;24.67;;;;;1.35;100.00;98775.44;4795607;28;102273;-70
2023/04/08 05:51:02;;;;;;;;;36.33;28.67;;;;;1.71;100.00;98781.88;4806596;28;102084;-71
2023/04/08 05:53:29;;;;;;;;;33.00;25.67;;;;;1.96;100.00;98785.78;4805898;28;105472;-73
2023/04/08 05:55:56;;;;;;;;;24.33;18.67;;;;;2.07;100.00;98773.13;4802229;29;108633;-73
2023/04/08 05:58:23;;;;;;;;;32.00;27.33;;;;;2.41;100.00;98772.63;4822635;28;103299;-71
2023/04/08 06:00:50;;;;;;;;;26.25;22.50;;;;;2.83;100.00;98775.69;4817324;28;102117;-72
2023/04/08 06:03:17;;;;;;;;;31.25;26.75;;;;;3.01;100.00;98784.59;4802992;28;102174;-71
2023/04/08 06:05:46;;;;;;;;;29.75;24.25;;;;;3.30;97.75;98797.75;4800308;28;104138;-71
2023/04/08 06:08:13;;;;;;;;;28.25;22.50;;;;;3.80;96.03;98776.69;4802495;28;102420;-71
2023/04/08 06:10:47;;;;;;;;;34.50;26.50;;;;;3.96;95.06;98793.72;4804472;28;102118;-71
2023/04/08 06:13:14;;;;;;;;;30.75;27.00;;;;;3.90;92.47;98809.56;4799041;28;102059;-71
2023/04/08 06:15:42;;;;;;;;;31.50;25.25;;;;;4.09;93.54;98801.38;4809828;28;104204;-71
2023/04/08 06:18:09;;;;;;;;;30.00;23.75;;;;;4.35;92.48;98804.91;4806183;28;103238;-71
2023/04/08 06:20:35;;;;;;;;;26.00;21.50;;;;;4.21;92.36;98801.94;4804814;28;102451;-72
2023/04/08 06:23:02;;;;;;;;;27.75;24.00;;;;;4.25;91.66;98822.88;4801944;28;103223;-72
2023/04/08 06:25:29;;;;;;;;;31.00;27.50;;;;;3.90;92.90;98821.09;4807033;28;104568;-73
2023/04/08 06:27:56;;;;;;;;;28.00;24.50;;;;;3.48;95.96;98822.69;4807951;28;102208;-72
2023/04/08 06:30:23;;;;;;;;;37.00;30.25;;;;;3.45;96.45;98831.84;4799993;28;101990;-72
2023/04/08 06:32:50;;;;;;;;;28.00;23.50;;;;;3.65;96.54;98837.06;4801736;28;102069;-72
2023/04/08 06:35:17;;;;;;;;;31.75;22.50;;;;;3.95;97.42;98823.31;4806744;28;104440;-72
2023/04/08 06:37:45;;;;;;;;;30.50;23.50;;;;;4.06;92.42;98812.34;4804850;28;102061;-72
2023/04/08 06:40:12;;;;;;;;;32.00;25.00;;;;;4.04;93.71;98838.44;4800291;28;101791;-71
2023/04/08 06:42:41;;;;;;;;;28.50;25.25;;;;;3.93;92.24;98844.00;4801193;28;102385;-71
2023/04/08 06:45:10;;;;;;;;;32.50;26.50;;;;;4.03;92.30;98842.09;4800553;28;104052;-71
2023/04/08 06:47:37;;;;;;;;;26.25;22.00;;;;;4.32;92.38;98837.31;4800698;28;103182;-72
2023/04/08 06:50:04;;;;;;;;;24.00;22.00;;;;;4.10;89.31;98850.38;4801390;28;103163;-71
2023/04/08 06:52:32;;;;;;;;;26.25;23.50;;;;;3.91;91.14;98846.03;4808071;28;102530;-71
2023/04/08 06:54:59;;;;;;;;;27.25;23.25;;;;;3.71;92.38;98855.16;4824136;28;104004;-71
2023/04/08 06:57:26;;;;;;;;;27.00;24.25;;;;;3.99;93.57;98862.97;4803080;28;102146;-72
2023/04/08 06:59:55;;;;;;;;;26.00;23.50;;;;;3.77;93.48;98835.84;4805467;28;101993;-71
2023/04/08 07:02:23;;;;;;;;;27.50;25.00;;;;;3.56;94.03;98841.47;4807474;28;102427;-71
2023/04/08 07:04:50;;;;;;;;;29.00;23.25;;;;;3.45;94.40;98853.22;4797186;28;104100;-72
2023/04/08 07:07:17;;;;;;;;;22.25;19.25;;;;;3.44;94.28;98861.41;4798909;28;102206;-72
2023/04/08 07:09:45;;;;;;;;;28.25;24.00;;;;;3.55;94.69;98851.34;4800200;28;102254;-71
2023/04/08 07:12:12;;;;;;;;;28.25;24.75;;;;;3.67;95.54;98867.16;4804926;28;102250;-71
2023/04/08 07:14:39;;;;;;;;;32.50;28.25;;;;;3.73;94.32;98874.59;4799834;28;104121;-73
2023/04/08 07:17:06;;;;;;;;;26.50;23.50;;;;;3.67;92.06;98827.91;4803315;28;101974;-72
2023/04/08 07:19:33;;;;;;;;;32.75;26.00;;;;;3.85;93.27;98868.03;4802712;29;102355;-73
2023/04/08 07:22:01;;;;;;;;;32.75;26.00;;;;;3.64;93.88;98846.09;4802171;28;102089;-73
2023/04/08 07:24:28;;;;;;;;;23.75;19.00;;;;;3.92;92.83;98872.59;4804848;28;108969;-73
2023/04/08 07:26:55;;;;;;;;;30.00;25.50;;;;;3.82;93.12;98822.88;4807815;28;103058;-73
2023/04/08 07:29:22;;;;;;;;;26.75;17.25;;;;;3.96;92.35;98873.16;4806225;28;102342;-72
2023/04/08 07:31:50;;;;;;;;;25.25;22.50;;;;;3.91;91.64;98872.78;4801269;28;102028;-71
2023/04/08 07:34:17;;;;;;;;;31.00;25.00;;;;;3.86;91.32;98869.72;4815064;28;104576;-73
2023/04/08 07:36:44;;;;;;;;;28.75;24.75;;;;;3.97;93.50;98872.97;4804954;28;102392;-71
2023/04/08 07:39:11;;;;;;;;;21.00;19.75;;;;;4.45;92.41;98869.91;4802628;28;102005;-74
2023/04/08 07:41:38;;;;;;;;;23.25;21.50;;;;;4.77;90.05;98857.72;4809177;28;102109;-71
2023/04/08 07:44:06;;;;;;;;;29.00;25.00;;;;;4.97;87.33;98861.84;4804414;28;103215;-72
2023/04/08 07:46:37;;;;;;;;;29.00;21.00;;;;;4.97;88.03;98867.22;4820944;28;102280;-72
2023/04/08 07:49:05;;;;;;;;;26.75;21.00;;;;;4.90;89.07;98860.81;4800897;28;101994;-71
2023/04/08 07:51:32;;;;;;;;;27.75;18.25;;;;;5.03;87.97;98874.63;4802734;28;102251;-71
2023/04/08 07:53:59;;;;;;;;;22.75;19.75;;;;;5.03;85.94;98869.25;4828937;28;104381;-72
2023/04/08 07:56:26;;;;;;;;;28.50;26.00;;;;;4.72;86.68;98860.88;4809863;28;102256;-72
2023/04/08 07:58:54;;;;;;;;;22.75;21.25;;;;;4.99;85.95;98873.28;4795471;28;102070;-72
2023/04/08 08:01:23;;;;;;;;;26.25;22.25;;;;;5.24;87.23;98871.53;4817246;28;102573;-74
2023/04/08 08:03:51;;;;;;;;;17.75;16.50;;;;;5.80;85.98;98865.53;4805555;28;103336;-73
2023/04/08 08:06:20;;;;;;;;;25.50;24.50;;;;;5.94;85.89;98859.56;4802195;28;102446;-72
2023/04/08 08:08:47;;;;;;;;;22.25;20.50;;;;;6.05;83.33;98875.31;4791869;28;102300;-73
2023/04/08 08:11:15;;;;;;;;;22.00;17.75;;;;;5.67;83.27;98859.81;4803944;28;102435;-73
2023/04/08 08:13:42;;;;;;;;;27.00;19.75;;;;;5.99;84.07;98862.56;4805762;28;104111;-73
2023/04/08 08:16:10;;;;;;;;;27.50;23.25;;;;;6.03;82.79;98868.47;4797127;28;103069;-73
2023/04/08 08:18:39;;;;;;;;;24.25;22.25;;;;;5.83;81.99;98849.09;4817893;28;102384;-72
2023/04/08 08:21:07;;;;;;;;;21.25;19.50;;;;;5.94;81.92;98869.44;4808373;28;102469;-72
2023/04/08 08:23:34;;;;;;;;;17.50;15.00;;;;;6.14;82.51;98876.19;4798114;28;104048;-72
2023/04/08 08:26:08;;;;;;;;;20.75;17.00;;;;;6.05;82.48;98855.69;4796004;28;102092;-71
2023/04/08 08:28:36;;;;;;;;;20.75;18.00;;;;;6.10;78.70;98859.56;4802883;28;102346;-72
2023/04/08 08:31:04;;;;;;;;;18.00;17.75;;;;;6.49;79.35;98848.16;4802081;28;102002;-72
2023/04/08 08:33:32;;;;;;;;;21.50;20.00;;;;;6.84;80.61;98874.66;4804269;28;103336;-72
2023/04/08 08:36:00;;;;;;;;;22.00;19.00;;;;;6.93;79.61;98864.72;4798591;28;103691;-73
2023/04/08 08:38:27;;;;;;;;;24.50;22.25;;;;;7.14;79.62;98876.59;4801733;28;101982;-72
2023/04/08 08:40:56;;;;;;;;;17.75;14.25;;;;;7.30;75.72;98883.75;4804610;28;102109;-72
2023/04/08 08:43:25;;;;;;;;;16.00;15.00;;;;;7.51;77.33;98885.88;4803245;28;104091;-72
2023/04/08 08:45:52;;;;;;;;;18.75;16.25;;;;;7.62;77.27;98888.16;4820352;28;102256;-72
2023/04/08 08:48:21;;;;;;;;;17.75;16.25;;;;;7.59;74.00;98900.13;4804710;28;102252;-71
2023/04/08 08:50:48;;;;;;;;;25.75;19.50;;;;;7.71;76.10;98905.97;4804624;28;102295;-73
2023/04/08 08:53:15;;;;;;;;;19.25;15.75;;;;;7.52;77.93;98901.03;4799429;28;104205;-73
2023/04/08 08:55:42;;;;;;;;;21.25;18.75;;;;;6.96;75.76;98861.69;4801258;28;105735;-72
2023/04/08 08:58:12;;;;;;;;;18.50;16.50;;;;;6.92;78.35;98885.38;4803637;28;102030;-72
2023/04/08 09:00:44;;;;;;;;;23.75;17.25;;;;;6.94;78.78;98891.41;4817680;28;102388;-72
2023/04/08 09:03:23;;;;;;;;;24.25;20.25;;;;;7.20;79.72;98903.81;4796362;28;104027;-73
2023/04/08 09:05:56;;;;;;;;;20.00;19.00;;;;;7.63;79.38;98909.53;4802107;28;102083;-72
2023/04/08 09:08:33;;;;;;;;;21.25;19.00;;;;;7.52;77.45;98917.16;4798822;28;102109;-73
2023/04/08 09:11:21;;;;;;;;;18.00;17.75;;;;;7.56;74.88;98910.41;4802156;28;102312;-73
2023/04/08 09:13:48;;;;;;;;;17.25;17.00;;;;;7.55;75.35;98890.75;4799900;28;109228;-73
2023/04/08 09:16:18;;;;;;;;;17.00;15.25;;;;;8.17;77.36;98908.75;4800151;28;102225;-73
2023/04/08 09:18:48;;;;;;;;;21.00;20.50;;;;;8.00;74.61;98908.00;4808242;28;102140;-73
2023/04/08 09:21:16;;;;;;;;;14.50;12.50;;;;;8.52;73.99;98924.34;4805626;28;102047;-74
2023/04/08 09:23:51;;;;;;;;;15.00;12.25;;;;;8.51;71.25;98907.34;4804229;28;105194;-74
2023/04/08 09:26:22;;;;;;;;;13.25;12.75;;;;;8.47;74.57;98886.31;4790874;28;102055;-74
2023/04/08 09:29:02;;;;;;;;;18.50;15.00;;;;;8.81;69.74;98926.31;4799862;28;102580;-74
2023/04/08 09:31:54;;;;;;;;;16.25;13.75;;;;;8.91;70.65;98916.97;4800586;28;102375;-73
2023/04/08 09:34:23;;;;;;;;;16.50;13.75;;;;;8.79;71.00;98915.69;4800762;28;104085;-74
2023/04/08 09:36:51;;;;;;;;;20.75;17.25;;;;;8.80;70.71;98900.38;4796961;28;102365;-74
2023/04/08 09:39:19;;;;;;;;;19.75;16.00;;;;;9.17;68.73;98926.47;4807498;28;103480;-74
2023/04/08 09:41:51;;;;;;;;;15.50;15.50;;;;;9.21;67.36;98922.38;4803941;28;102901;-75
2023/04/08 09:44:25;;;;;;;;;16.25;14.50;;;;;8.85;69.33;98914.97;4796822;28;103308;-72
2023/04/08 09:47:00;;;;;;;;;15.75;15.00;;;;;8.95;68.23;98930.91;4797917;28;101963;-73
2023/04/08 09:49:45;;;;;;;;;17.50;16.00;;;;;8.64;68.63;98930.16;4799957;28;102232;-74
2023/04/08 09:52:23;;;;;;;;;20.50;17.25;;;;;8.67;70.18;98930.63;4799431;29;105393;-73
2023/04/08 09:55:01;;;;;;;;;23.25;20.50;;;;;8.47;70.93;98940.22;4795857;28;104254;-75
2023/04/08 09:57:41;;;;;;;;;22.75;17.00;;;;;8.10;69.71;98950.88;4811814;28;102180;-74
2023/04/08 10:00:16;;;;;;;;;19.50;17.25;;;;;7.96;71.72;98947.91;4798058;29;102814;-74
2023/04/08 10:03:09;;;;;;;;;20.75;16.00;;;;;7.96;73.05;98939.00;4797815;28;104424;-75
2023/04/08 10:05:39;;;;;;;;;15.50;14.50;;;;;8.13;71.04;98953.22;4797608;28;108934;-73
2023/04/08 10:08:07;;;;;;;;;19.25;16.50;;;;;8.21;69.51;98950.47;4800981;28;102160;-74
2023/04/08 10:10:38;;;;;;;;;19.75;14.00;;;;;8.12;69.33;98929.97;4793560;28;103186;-74
2023/04/08 10:13:06;;;;;;;;;19.50;16.00;;;;;8.34;71.21;98948.06;4798884;28;102546;-75
2023/04/08 10:15:36;;;;;;;;;21.75;18.00;;;;;8.47;71.65;98951.00;4805643;28;103667;-74
2023/04/08 10:18:05;;;;;;;;;23.75;20.25;;;;;8.23;71.14;98948.44;4799519;28;103281;-75
2023/04/08 10:20:35;;;;;;;;;23.25;21.50;;;;;8.32;72.37;98952.78;4796034;29;102249;-73
2023/04/08 10:23:04;;;;;;;;;20.50;17.25;;;;;8.58;71.53;98958.66;4799649;28;102848;-73
2023/04/08 10:25:42;;;;;;;;;19.25;15.50;;;;;9.08;72.32;98938.38;4805619;28;108765;-73
2023/04/08 10:28:17;;;;;;;;;24.00;20.75;;;;;8.39;67.17;98959.97;4799852;28;102368;-74
2023/04/08 10:30:52;;;;;;;;;12.75;9.25;;;;;8.36;68.36;98959.50;4797859;28;102868;-73
2023/04/08 10:33:24;;;;;;;;;18.25;16.50;;;;;8.38;69.32;98962.84;4805682;28;103123;-74
2023/04/08 10:36:10;;;;;;;;;17.00;14.50;;;;;8.66;69.10;98957.75;4800617;28;104045;-72
2023/04/08 10:38:38;;;;;;;;;17.00;17.00;;;;;8.99;69.08;98950.25;4798835;28;102356;-74
2023/04/08 10:41:05;;;;;;;;;20.50;18.00;;;;;9.01;69.17;98949.03;4804192;28;103528;-73
2023/04/08 10:43:34;;;;;;;;;24.50;19.50;;;;;8.83;67.95;98930.50;4807084;28;102094;-74
2023/04/08 10:46:02;;;;;;;;;22.25;18.75;;;;;8.58;65.45;98952.44;4791472;29;108736;-73
2023/04/08 10:48:29;;;;;;;;;21.00;20.00;;;;;8.41;66.86;98962.50;4807503;28;103121;-72
2023/04/08 10:50:59;;;;;;;;;25.50;21.75;;;;;8.28;68.87;98938.81;4820692;28;103578;-74
2023/04/08 10:53:35;;;;;;;;;29.00;21.00;;;;;8.49;67.93;98938.19;4799842;28;103608;-72
2023/04/08 10:56:12;;;;;;;;;20.75;18.00;;;;;8.42;68.70;98943.44;4804164;29;108257;-75
2023/04/08 10:58:50;;;;;;;;;23.75;20.50;;;;;8.36;67.53;98943.34;4804959;28;103634;-73
2023/04/08 11:01:18;;;;;;;;;28.00;25.00;;;;;8.55;70.48;98953.66;4800307;28;102151;-74
2023/04/08 11:03:46;;;;;;;;;21.50;19.75;;;;;8.47;70.34;98951.00;4811949;28;102117;-74
2023/04/08 11:06:13;;;;;;;;;22.50;20.75;;;;;8.24;67.90;98955.50;4803185;28;104394;-75
2023/04/08 11:08:41;;;;;;;;;24.00;22.00;;;;;7.90;69.33;98937.84;4805084;28;102130;-74
2023/04/08 11:11:09;;;;;;;;;23.50;20.00;;;;;7.92;69.63;98943.06;4805287;28;105429;-75
2023/04/08 11:13:40;;;;;;;;;24.25;20.50;;;;;7.94;70.48;98958.00;4805671;28;102118;-75
2023/04/08 11:16:20;;;;;;;;;20.75;17.50;;;;;7.63;68.21;98935.59;4804667;28;103335;-74
2023/04/08 11:18:49;;;;;;;;;19.50;19.25;;;;;7.70;69.43;98951.91;4808781;28;102127;-74
2023/04/08 11:21:16;;;;;;;;;17.75;15.75;;;;;7.60;72.20;98952.94;4804626;28;102148;-75
2023/04/08 11:23:43;;;;;;;;;25.75;21.25;;;;;7.88;72.35;98960.59;4805170;28;102279;-74
2023/04/08 11:26:10;;;;;;;;;23.25;20.25;;;;;8.05;72.31;98964.88;4803660;28;104277;-73